sensor_id;sensor_type;location;lat;lon;timestamp;pressure;altitude;pressure_sealevel;temperature;humidity
35331;BME280;21441;52.190;20.910;2023-11-21T00:02:27;99436.63;;;0.06;100.00
35331;BME280;21441;52.190;20.910;2023-11-21T00:04:54;99442.94;;;0.04;100.00
35331;BME280;21441;52.190;20.910;2023-11-21T00:07:22;99447.25;;;0.05;100.00
35331;BME280;21441;52.190;20.910;2023-11-21T00:09:49;99450.94;;;0.02;100.00
35331;BME280;21441;52.190;20.910;2023-11-21T00:12:16;99450.09;;;0.02;100.00
35331;BME280;21441;52.190;20.910;2023-11-21T00:14:44;99451.28;;;0.09;100.00
35331;BME280;21441;52.190;20.910;2023-11-21T00:17:11;99452.84;;;0.11;100.00
35331;BME280;21441;52.190;20.910;2023-11-21T00:19:38;99454.13;;;0.17;100.00
35331;BME280;21441;52.190;20.910;2023-11-21T00:22:05;99458.53;;;0.16;100.00
35331;BME280;21441;52.190;20.910;2023-11-21T00:24:34;99464.63;;;0.17;100.00
35331;BME280;21441;52.190;20.910;2023-11-21T00:27:01;99453.69;;;0.01;100.00
35331;BME280;21441;52.190;20.910;2023-11-21T00:29:28;99470.59;;;0.08;100.00
35331;BME280;21441;52.190;20.910;2023-11-21T00:31:56;99477.03;;;0.04;100.00
35331;BME280;21441;52.190;20.910;2023-11-21T00:34:23;99475.38;;;0.03;100.00
35331;BME280;21441;52.190;20.910;2023-11-21T00:36:50;99471.34;;;-0.02;100.00
35331;BME280;21441;52.190;20.910;2023-11-21T00:39:16;99470.63;;;-0.04;100.00
35331;BME280;21441;52.190;20.910;2023-11-21T00:41:45;99477.06;;;-0.08;100.00
35331;BME280;21441;52.190;20.910;2023-11-21T00:44:12;99472.06;;;0.01;100.00
35331;BME280;21441;52.190;20.910;2023-11-21T00:46:39;99478.28;;;-0.23;100.00
35331;BME280;21441;52.190;20.910;2023-11-21T00:49:07;99489.84;;;-0.26;100.00
35331;BME280;21441;52.190;20.910;2023-11-21T00:51:34;99481.72;;;-0.23;100.00
35331;BME280;21441;52.190;20.910;2023-11-21T00:54:01;99488.16;;;-0.27;100.00
35331;BME280;21441;52.190;20.910;2023-11-21T00:56:29;99494.00;;;-0.23;100.00
35331;BME280;21441;52.190;20.910;2023-11-21T00:58:57;99494.22;;;-0.37;100.00
35331;BME280;21441;52.190;20.910;2023-11-21T01:01:24;99491.63;;;-0.26;100.00
35331;BME280;21441;52.190;20.910;2023-11-21T01:03:51;99487.59;;;-0.30;100.00
35331;BME280;21441;52.190;20.910;2023-11-21T01:06:20;99490.78;;;-0.27;100.00
35331;BME280;21441;52.190;20.910;2023-11-21T01:08:46;99496.03;;;-0.27;100.00
35331;BME280;21441;52.190;20.910;2023-11-21T01:11:14;99499.97;;;-0.32;100.00
35331;BME280;21441;52.190;20.910;2023-11-21T01:13:41;99483.53;;;-0.34;100.00
35331;BME280;21441;52.190;20.910;2023-11-21T01:16:12;99487.69;;;-0.43;100.00
35331;BME280;21441;52.190;20.910;2023-11-21T01:18:39;99485.69;;;-0.39;100.00
35331;BME280;21441;52.190;20.910;2023-11-21T01:21:06;99500.44;;;-0.38;100.00
35331;BME280;21441;52.190;20.910;2023-11-21T01:23:34;99502.34;;;-0.52;100.00
35331;BME280;21441;52.190;20.910;2023-11-21T01:26:02;99514.38;;;-0.38;100.00
35331;BME280;21441;52.190;20.910;2023-11-21T01:28:29;99508.06;;;-0.35;100.00
35331;BME280;21441;52.190;20.910;2023-11-21T01:30:57;99497.34;;;-0.44;100.00
35331;BME280;21441;52.190;20.910;2023-11-21T01:33:25;99506.16;;;-0.45;100.00
35331;BME280;21441;52.190;20.910;2023-11-21T01:35:52;99505.94;;;-0.42;100.00
35331;BME280;21441;52.190;20.910;2023-11-21T01:38:20;99513.19;;;-0.45;100.00
35331;BME280;21441;52.190;20.910;2023-11-21T01:40:47;99514.63;;;-0.41;100.00
35331;BME280;21441;52.190;20.910;2023-11-21T01:43:14;99501.75;;;-0.44;100.00
35331;BME280;21441;52.190;20.910;2023-11-21T01:45:42;99507.13;;;-0.34;100.00
35331;BME280;21441;52.190;20.910;2023-11-21T01:48:11;99506.03;;;-0.32;100.00
35331;BME280;21441;52.190;20.910;2023-11-21T01:50:41;99510.22;;;-0.40;100.00
35331;BME280;21441;52.190;20.910;2023-11-21T01:53:08;99513.09;;;-0.44;100.00
35331;BME280;21441;52.190;20.910;2023-11-21T01:55:36;99505.59;;;-0.37;100.00
35331;BME280;21441;52.190;20.910;2023-11-21T01:58:04;99507.34;;;-0.37;100.00
35331;BME280;21441;52.190;20.910;2023-11-21T02:00:33;99510.81;;;-0.37;100.00
35331;BME280;21441;52.190;20.910;2023-11-21T02:03:00;99515.44;;;-0.40;100.00
35331;BME280;21441;52.190;20.910;2023-11-21T02:05:28;99516.41;;;-0.42;100.00
35331;BME280;21441;52.190;20.910;2023-11-21T02:07:57;99511.19;;;-0.42;100.00
35331;BME280;21441;52.190;20.910;2023-11-21T02:10:24;99510.56;;;-0.45;100.00
35331;BME280;21441;52.190;20.910;2023-11-21T02:12:51;99515.91;;;-0.47;100.00
35331;BME280;21441;52.190;20.910;2023-11-21T02:15:19;99519.03;;;-0.42;100.00
35331;BME280;21441;52.190;20.910;2023-11-21T02:17:47;99515.34;;;-0.50;100.00
35331;BME280;21441;52.190;20.910;2023-11-21T02:20:17;99515.19;;;-0.49;100.00
35331;BME280;21441;52.190;20.910;2023-11-21T02:22:50;99529.25;;;-0.61;100.00
35331;BME280;21441;52.190;20.910;2023-11-21T02:25:18;99529.25;;;-0.61;100.00
35331;BME280;21441;52.190;20.910;2023-11-21T02:27:45;99540.22;;;-0.56;100.00
35331;BME280;21441;52.190;20.910;2023-11-21T02:30:14;99519.25;;;-0.56;100.00
35331;BME280;21441;52.190;20.910;2023-11-21T02:32:41;99526.75;;;-0.51;100.00
35331;BME280;21441;52.190;20.910;2023-11-21T02:35:09;99520.34;;;-0.58;100.00
35331;BME280;21441;52.190;20.910;2023-11-21T02:38:07;99527.56;;;-0.62;100.00
35331;BME280;21441;52.190;20.910;2023-11-21T02:40:34;99531.53;;;-0.56;100.00
35331;BME280;21441;52.190;20.910;2023-11-21T02:43:01;99536.50;;;-0.65;100.00
35331;BME280;21441;52.190;20.910;2023-11-21T02:45:28;99533.78;;;-0.63;100.00
35331;BME280;21441;52.190;20.910;2023-11-21T02:47:55;99537.94;;;-0.60;100.00
35331;BME280;21441;52.190;20.910;2023-11-21T02:50:23;99523.88;;;-0.71;100.00
35331;BME280;21441;52.190;20.910;2023-11-21T02:52:50;99541.50;;;-0.62;100.00
35331;BME280;21441;52.190;20.910;2023-11-21T02:55:18;99536.41;;;-0.52;100.00
35331;BME280;21441;52.190;20.910;2023-11-21T02:57:46;99532.81;;;-0.51;100.00
35331;BME280;21441;52.190;20.910;2023-11-21T03:00:13;99524.13;;;-0.63;100.00
35331;BME280;21441;52.190;20.910;2023-11-21T03:02:40;99531.00;;;-0.73;100.00
35331;BME280;21441;52.190;20.910;2023-11-21T03:05:08;99545.69;;;-0.59;100.00
35331;BME280;21441;52.190;20.910;2023-11-21T03:07:36;99540.47;;;-0.59;100.00
35331;BME280;21441;52.190;20.910;2023-11-21T03:10:04;99539.59;;;-0.59;100.00
35331;BME280;21441;52.190;20.910;2023-11-21T03:12:33;99536.06;;;-0.58;100.00
35331;BME280;21441;52.190;20.910;2023-11-21T03:15:00;99543.53;;;-0.65;100.00
35331;BME280;21441;52.190;20.910;2023-11-21T03:17:27;99537.69;;;-0.69;100.00
35331;BME280;21441;52.190;20.910;2023-11-21T03:19:55;99529.00;;;-0.80;100.00
35331;BME280;21441;52.190;20.910;2023-11-21T03:22:22;99554.47;;;-0.71;100.00
35331;BME280;21441;52.190;20.910;2023-11-21T03:24:50;99539.59;;;-0.71;100.00
35331;BME280;21441;52.190;20.910;2023-11-21T03:27:17;99551.84;;;-0.71;100.00
35331;BME280;21441;52.190;20.910;2023-11-21T03:29:46;99550.94;;;-0.70;100.00
35331;BME280;21441;52.190;20.910;2023-11-21T03:32:12;99555.91;;;-0.67;100.00
35331;BME280;21441;52.190;20.910;2023-11-21T03:34:53;99535.50;;;-0.86;100.00
35331;BME280;21441;52.190;20.910;2023-11-21T03:37:21;99549.69;;;-0.77;100.00
35331;BME280;21441;52.190;20.910;2023-11-21T03:39:48;99556.72;;;-0.78;100.00
35331;BME280;21441;52.190;20.910;2023-11-21T03:42:15;99545.06;;;-0.85;100.00
35331;BME280;21441;52.190;20.910;2023-11-21T03:44:42;99557.00;;;-0.70;100.00
35331;BME280;21441;52.190;20.910;2023-11-21T03:47:10;99558.06;;;-0.72;100.00
35331;BME280;21441;52.190;20.910;2023-11-21T03:50:06;99556.63;;;-0.76;100.00
35331;BME280;21441;52.190;20.910;2023-11-21T03:52:35;99566.72;;;-0.83;100.00
35331;BME280;21441;52.190;20.910;2023-11-21T03:55:02;99575.44;;;-0.71;100.00
35331;BME280;21441;52.190;20.910;2023-11-21T03:57:29;99584.91;;;-0.81;100.00
35331;BME280;21441;52.190;20.910;2023-11-21T03:59:56;99576.53;;;-0.98;100.00
35331;BME280;21441;52.190;20.910;2023-11-21T04:02:25;99590.53;;;-0.75;100.00
35331;BME280;21441;52.190;20.910;2023-11-21T04:04:53;99584.81;;;-0.80;100.00
35331;BME280;21441;52.190;20.910;2023-11-21T04:07:22;99593.38;;;-0.89;100.00
35331;BME280;21441;52.190;20.910;2023-11-21T04:09:49;99591.38;;;-0.86;100.00
35331;BME280;21441;52.190;20.910;2023-11-21T04:12:16;99593.13;;;-0.86;100.00
35331;BME280;21441;52.190;20.910;2023-11-21T04:14:43;99588.25;;;-0.79;100.00
35331;BME280;21441;52.190;20.910;2023-11-21T04:17:10;99581.84;;;-0.75;100.00
35331;BME280;21441;52.190;20.910;2023-11-21T04:19:39;99589.72;;;-0.75;100.00
35331;BME280;21441;52.190;20.910;2023-11-21T04:22:06;99580.19;;;-0.76;100.00
35331;BME280;21441;52.190;20.910;2023-11-21T04:24:33;99589.81;;;-0.77;100.00
35331;BME280;21441;52.190;20.910;2023-11-21T04:27:00;99588.97;;;-0.77;100.00
35331;BME280;21441;52.190;20.910;2023-11-21T04:29:28;99591.47;;;-0.87;100.00
35331;BME280;21441;52.190;20.910;2023-11-21T04:31:56;99592.91;;;-0.83;100.00
35331;BME280;21441;52.190;20.910;2023-11-21T04:34:23;99597.63;;;-0.88;100.00
35331;BME280;21441;52.190;20.910;2023-11-21T04:36:51;99609.06;;;-0.89;100.00
35331;BME280;21441;52.190;20.910;2023-11-21T04:39:18;99622.63;;;-0.95;100.00
35331;BME280;21441;52.190;20.910;2023-11-21T04:41:46;99619.38;;;-0.99;100.00
35331;BME280;21441;52.190;20.910;2023-11-21T04:44:11;99605.06;;;-1.06;100.00
35331;BME280;21441;52.190;20.910;2023-11-21T04:46:39;99623.91;;;-1.01;100.00
35331;BME280;21441;52.190;20.910;2023-11-21T04:49:06;99620.34;;;-1.00;100.00
35331;BME280;21441;52.190;20.910;2023-11-21T04:51:33;99633.09;;;-0.95;100.00
35331;BME280;21441;52.190;20.910;2023-11-21T04:54:02;99623.09;;;-0.90;100.00
35331;BME280;21441;52.190;20.910;2023-11-21T04:56:29;99610.50;;;-0.96;100.00
35331;BME280;21441;52.190;20.910;2023-11-21T04:58:56;99621.78;;;-0.96;100.00
35331;BME280;21441;52.190;20.910;2023-11-21T05:01:23;99612.75;;;-0.92;100.00
35331;BME280;21441;52.190;20.910;2023-11-21T05:03:50;99619.16;;;-0.96;100.00
35331;BME280;21441;52.190;20.910;2023-11-21T05:06:18;99622.91;;;-0.87;100.00
35331;BME280;21441;52.190;20.910;2023-11-21T05:08:45;99631.03;;;-1.03;100.00
35331;BME280;21441;52.190;20.910;2023-11-21T05:11:24;99633.44;;;-1.00;100.00
35331;BME280;21441;52.190;20.910;2023-11-21T05:13:51;99630.66;;;-1.10;100.00
35331;BME280;21441;52.190;20.910;2023-11-21T05:16:19;99629.16;;;-1.01;100.00
35331;BME280;21441;52.190;20.910;2023-11-21T05:18:46;99634.06;;;-0.96;100.00
35331;BME280;21441;52.190;20.910;2023-11-21T05:21:16;99633.03;;;-1.07;100.00
35331;BME280;21441;52.190;20.910;2023-11-21T05:24:02;99646.22;;;-1.08;100.00
35331;BME280;21441;52.190;20.910;2023-11-21T05:26:30;99643.66;;;-1.21;100.00
35331;BME280;21441;52.190;20.910;2023-11-21T05:28:58;99653.81;;;-1.16;100.00
35331;BME280;21441;52.190;20.910;2023-11-21T05:31:25;99653.59;;;-1.13;100.00
35331;BME280;21441;52.190;20.910;2023-11-21T05:33:52;99654.53;;;-1.14;100.00
35331;BME280;21441;52.190;20.910;2023-11-21T05:36:20;99661.00;;;-1.07;100.00
35331;BME280;21441;52.190;20.910;2023-11-21T05:38:47;99656.84;;;-1.10;100.00
35331;BME280;21441;52.190;20.910;2023-11-21T05:41:15;99673.72;;;-1.14;100.00
35331;BME280;21441;52.190;20.910;2023-11-21T05:43:44;99672.66;;;-1.11;100.00
35331;BME280;21441;52.190;20.910;2023-11-21T05:46:11;99672.59;;;-0.98;100.00
35331;BME280;21441;52.190;20.910;2023-11-21T05:48:39;99669.03;;;-0.97;100.00
35331;BME280;21441;52.190;20.910;2023-11-21T05:51:06;99678.03;;;-1.01;100.00
35331;BME280;21441;52.190;20.910;2023-11-21T05:53:34;99670.25;;;-0.90;100.00
35331;BME280;21441;52.190;20.910;2023-11-21T05:56:02;99668.19;;;-0.98;100.00
35331;BME280;21441;52.190;20.910;2023-11-21T05:58:29;99662.13;;;-0.98;100.00
35331;BME280;21441;52.190;20.910;2023-11-21T06:00:58;99684.38;;;-1.17;100.00
35331;BME280;21441;52.190;20.910;2023-11-21T06:03:26;99684.50;;;-1.18;100.00
35331;BME280;21441;52.190;20.910;2023-11-21T06:05:53;99684.50;;;-1.18;100.00
35331;BME280;21441;52.190;20.910;2023-11-21T06:08:21;99668.81;;;-1.18;100.00
35331;BME280;21441;52.190;20.910;2023-11-21T06:10:49;99688.75;;;-1.05;100.00
35331;BME280;21441;52.190;20.910;2023-11-21T06:13:16;99696.16;;;-0.98;100.00
35331;BME280;21441;52.190;20.910;2023-11-21T06:15:46;99692.69;;;-0.99;100.00
35331;BME280;21441;52.190;20.910;2023-11-21T06:18:15;99710.44;;;-1.02;100.00
35331;BME280;21441;52.190;20.910;2023-11-21T06:20:45;99714.59;;;-1.00;100.00
35331;BME280;21441;52.190;20.910;2023-11-21T06:23:14;99714.69;;;-1.01;100.00
35331;BME280;21441;52.190;20.910;2023-11-21T06:25:42;99706.41;;;-0.95;100.00
35331;BME280;21441;52.190;20.910;2023-11-21T06:28:10;99719.94;;;-1.01;100.00
35331;BME280;21441;52.190;20.910;2023-11-21T06:30:46;99719.22;;;-1.04;100.00
35331;BME280;21441;52.190;20.910;2023-11-21T06:33:25;99712.94;;;-1.01;100.00
35331;BME280;21441;52.190;20.910;2023-11-21T06:36:19;99724.44;;;-1.04;100.00
35331;BME280;21441;52.190;20.910;2023-11-21T06:38:46;99716.97;;;-0.97;100.00
35331;BME280;21441;52.190;20.910;2023-11-21T06:41:14;99716.16;;;-0.97;100.00
35331;BME280;21441;52.190;20.910;2023-11-21T06:43:42;99732.50;;;-0.94;100.00
35331;BME280;21441;52.190;20.910;2023-11-21T06:46:12;99726.16;;;-0.78;100.00
35331;BME280;21441;52.190;20.910;2023-11-21T06:48:43;99693.03;;;-1.04;100.00
35331;BME280;21441;52.190;20.910;2023-11-21T06:51:11;99737.34;;;-0.76;100.00
35331;BME280;21441;52.190;20.910;2023-11-21T06:53:40;99744.28;;;-0.88;100.00
35331;BME280;21441;52.190;20.910;2023-11-21T06:56:15;99747.78;;;-0.88;100.00
35331;BME280;21441;52.190;20.910;2023-11-21T06:58:43;99741.34;;;-0.84;100.00
35331;BME280;21441;52.190;20.910;2023-11-21T07:01:11;99756.25;;;-0.97;100.00
35331;BME280;21441;52.190;20.910;2023-11-21T07:03:39;99755.34;;;-0.96;100.00
35331;BME280;21441;52.190;20.910;2023-11-21T07:06:12;99762.03;;;-0.92;100.00
35331;BME280;21441;52.190;20.910;2023-11-21T07:08:52;99762.03;;;-0.92;100.00
35331;BME280;21441;52.190;20.910;2023-11-21T07:11:19;99767.75;;;-0.87;100.00
35331;BME280;21441;52.190;20.910;2023-11-21T07:13:47;99769.03;;;-0.92;100.00
35331;BME280;21441;52.190;20.910;2023-11-21T07:16:21;99763.41;;;-0.75;100.00
35331;BME280;21441;52.190;20.910;2023-11-21T07:18:52;99770.69;;;-0.78;100.00
35331;BME280;21441;52.190;20.910;2023-11-21T07:21:29;99750.78;;;-0.81;100.00
35331;BME280;21441;52.190;20.910;2023-11-21T07:24:03;99773.84;;;-0.86;100.00
35331;BME280;21441;52.190;20.910;2023-11-21T07:26:39;99779.28;;;-0.76;100.00
35331;BME280;21441;52.190;20.910;2023-11-21T07:29:08;99769.53;;;-0.74;100.00
35331;BME280;21441;52.190;20.910;2023-11-21T07:31:42;99777.56;;;-0.77;100.00
35331;BME280;21441;52.190;20.910;2023-11-21T07:34:11;99768.84;;;-0.65;100.00
35331;BME280;21441;52.190;20.910;2023-11-21T07:36:39;99776.09;;;-0.69;100.00
35331;BME280;21441;52.190;20.910;2023-11-21T07:39:07;99782.22;;;-0.81;100.00
35331;BME280;21441;52.190;20.910;2023-11-21T07:41:34;99782.22;;;-0.81;100.00
35331;BME280;21441;52.190;20.910;2023-11-21T07:44:01;99784.50;;;-0.76;100.00
35331;BME280;21441;52.190;20.910;2023-11-21T07:46:28;99776.75;;;-0.78;100.00
35331;BME280;21441;52.190;20.910;2023-11-21T07:48:55;99773.31;;;-0.78;100.00
35331;BME280;21441;52.190;20.910;2023-11-21T07:51:22;99771.19;;;-0.73;100.00
35331;BME280;21441;52.190;20.910;2023-11-21T07:53:51;99777.03;;;-0.70;100.00
35331;BME280;21441;52.190;20.910;2023-11-21T07:56:18;99779.66;;;-0.70;100.00
35331;BME280;21441;52.190;20.910;2023-11-21T07:58:53;99788.97;;;-0.66;100.00
35331;BME280;21441;52.190;20.910;2023-11-21T08:01:20;99786.56;;;-0.69;100.00
35331;BME280;21441;52.190;20.910;2023-11-21T08:03:55;99791.94;;;-0.70;100.00
35331;BME280;21441;52.190;20.910;2023-11-21T08:06:27;99775.69;;;-0.75;100.00
35331;BME280;21441;52.190;20.910;2023-11-21T08:08:56;99761.81;;;-0.89;100.00
35331;BME280;21441;52.190;20.910;2023-11-21T08:11:23;99789.09;;;-0.67;100.00
35331;BME280;21441;52.190;20.910;2023-11-21T08:13:52;99795.97;;;-0.66;100.00
35331;BME280;21441;52.190;20.910;2023-11-21T08:16:19;99788.69;;;-0.74;100.00
35331;BME280;21441;52.190;20.910;2023-11-21T08:18:47;99802.81;;;-0.64;100.00
35331;BME280;21441;52.190;20.910;2023-11-21T08:21:14;99803.56;;;-0.74;100.00
35331;BME280;21441;52.190;20.910;2023-11-21T08:23:41;99806.13;;;-0.86;100.00
35331;BME280;21441;52.190;20.910;2023-11-21T08:26:09;99805.78;;;-0.81;100.00
35331;BME280;21441;52.190;20.910;2023-11-21T08:28:37;99808.97;;;-0.65;100.00
35331;BME280;21441;52.190;20.910;2023-11-21T08:31:04;99810.53;;;-0.62;100.00
35331;BME280;21441;52.190;20.910;2023-11-21T08:33:31;99814.06;;;-0.50;100.00
35331;BME280;21441;52.190;20.910;2023-11-21T08:35:58;99813.56;;;-0.55;100.00
35331;BME280;21441;52.190;20.910;2023-11-21T08:38:27;99830.25;;;-0.69;100.00
35331;BME280;21441;52.190;20.910;2023-11-21T08:40:54;99837.63;;;-0.74;100.00
35331;BME280;21441;52.190;20.910;2023-11-21T08:43:23;99839.69;;;-0.67;100.00
35331;BME280;21441;52.190;20.910;2023-11-21T08:45:50;99829.09;;;-0.65;100.00
35331;BME280;21441;52.190;20.910;2023-11-21T08:48:17;99842.00;;;-0.75;100.00
35331;BME280;21441;52.190;20.910;2023-11-21T08:50:44;99835.34;;;-0.79;100.00
35331;BME280;21441;52.190;20.910;2023-11-21T08:53:12;99827.25;;;-0.76;100.00
35331;BME280;21441;52.190;20.910;2023-11-21T08:55:39;99844.72;;;-0.64;100.00
35331;BME280;21441;52.190;20.910;2023-11-21T08:58:06;99840.00;;;-0.71;100.00
35331;BME280;21441;52.190;20.910;2023-11-21T09:00:34;99855.34;;;-0.91;100.00
35331;BME280;21441;52.190;20.910;2023-11-21T09:03:02;99858.66;;;-0.63;100.00
35331;BME280;21441;52.190;20.910;2023-11-21T09:05:37;99850.13;;;-0.54;100.00
35331;BME280;21441;52.190;20.910;2023-11-21T09:08:05;99846.94;;;-0.46;100.00
35331;BME280;21441;52.190;20.910;2023-11-21T09:10:34;99856.09;;;-0.52;100.00
35331;BME280;21441;52.190;20.910;2023-11-21T09:13:02;99858.31;;;-0.58;100.00
35331;BME280;21441;52.190;20.910;2023-11-21T09:15:29;99853.66;;;-0.42;100.00
35331;BME280;21441;52.190;20.910;2023-11-21T09:17:58;99863.09;;;-0.39;100.00
35331;BME280;21441;52.190;20.910;2023-11-21T09:20:25;99868.47;;;-0.54;100.00
35331;BME280;21441;52.190;20.910;2023-11-21T09:22:52;99862.13;;;-0.38;100.00
35331;BME280;21441;52.190;20.910;2023-11-21T09:25:20;99858.16;;;-0.44;100.00
35331;BME280;21441;52.190;20.910;2023-11-21T09:27:47;99863.38;;;-0.31;100.00
35331;BME280;21441;52.190;20.910;2023-11-21T09:30:14;99857.53;;;-0.35;100.00
35331;BME280;21441;52.190;20.910;2023-11-21T09:32:42;99858.75;;;-0.28;100.00
35331;BME280;21441;52.190;20.910;2023-11-21T09:35:12;99866.94;;;-0.08;100.00
35331;BME280;21441;52.190;20.910;2023-11-21T09:37:39;99867.16;;;-0.11;100.00
35331;BME280;21441;52.190;20.910;2023-11-21T09:40:09;99862.19;;;-0.03;100.00
35331;BME280;21441;52.190;20.910;2023-11-21T09:42:43;99859.09;;;-0.08;100.00
35331;BME280;21441;52.190;20.910;2023-11-21T09:45:18;99862.16;;;-0.14;100.00
35331;BME280;21441;52.190;20.910;2023-11-21T09:47:52;99859.69;;;-0.05;100.00
35331;BME280;21441;52.190;20.910;2023-11-21T09:50:22;99860.94;;;0.03;100.00
35331;BME280;21441;52.190;20.910;2023-11-21T09:52:55;99856.53;;;0.14;100.00
35331;BME280;21441;52.190;20.910;2023-11-21T09:55:25;99857.50;;;0.13;100.00
35331;BME280;21441;52.190;20.910;2023-11-21T09:57:56;99861.00;;;0.25;100.00
35331;BME280;21441;52.190;20.910;2023-11-21T10:00:23;99866.34;;;0.24;100.00
35331;BME280;21441;52.190;20.910;2023-11-21T10:02:52;99871.63;;;-0.01;100.00
35331;BME280;21441;52.190;20.910;2023-11-21T10:05:20;99873.41;;;-0.01;100.00
35331;BME280;21441;52.190;20.910;2023-11-21T10:07:49;99874.53;;;0.08;100.00
35331;BME280;21441;52.190;20.910;2023-11-21T10:10:19;99885.78;;;0.21;100.00
35331;BME280;21441;52.190;20.910;2023-11-21T10:12:50;99879.91;;;0.17;100.00
35331;BME280;21441;52.190;20.910;2023-11-21T10:15:21;99885.25;;;0.29;100.00
35331;BME280;21441;52.190;20.910;2023-11-21T10:17:49;99883.09;;;0.34;100.00
35331;BME280;21441;52.190;20.910;2023-11-21T10:20:20;99879.41;;;0.36;100.00
35331;BME280;21441;52.190;20.910;2023-11-21T10:22:49;99878.97;;;0.54;100.00
35331;BME280;21441;52.190;20.910;2023-11-21T10:25:16;99876.25;;;0.67;100.00
35331;BME280;21441;52.190;20.910;2023-11-21T10:27:47;99869.09;;;0.57;100.00
35331;BME280;21441;52.190;20.910;2023-11-21T10:30:16;99883.41;;;0.53;100.00
35331;BME280;21441;52.190;20.910;2023-11-21T10:32:44;99890.31;;;0.66;100.00
35331;BME280;21441;52.190;20.910;2023-11-21T10:35:12;99873.75;;;0.65;100.00
35331;BME280;21441;52.190;20.910;2023-11-21T10:37:41;99878.06;;;0.77;100.00
35331;BME280;21441;52.190;20.910;2023-11-21T10:40:10;99887.13;;;0.73;100.00
35331;BME280;21441;52.190;20.910;2023-11-21T10:42:38;99887.69;;;0.66;100.00
35331;BME280;21441;52.190;20.910;2023-11-21T10:45:06;99898.38;;;0.75;100.00
35331;BME280;21441;52.190;20.910;2023-11-21T10:47:39;99892.34;;;0.51;100.00
35331;BME280;21441;52.190;20.910;2023-11-21T10:50:07;99907.22;;;0.50;100.00
35331;BME280;21441;52.190;20.910;2023-11-21T10:52:37;99896.28;;;0.56;100.00
35331;BME280;21441;52.190;20.910;2023-11-21T10:55:17;99905.94;;;0.56;100.00
35331;BME280;21441;52.190;20.910;2023-11-21T10:57:48;99883.38;;;0.42;100.00
35331;BME280;21441;52.190;20.910;2023-11-21T11:00:16;99895.41;;;0.45;100.00
35331;BME280;21441;52.190;20.910;2023-11-21T11:02:48;99892.63;;;0.35;100.00
35331;BME280;21441;52.190;20.910;2023-11-21T11:05:19;99908.47;;;0.22;100.00
35331;BME280;21441;52.190;20.910;2023-11-21T11:07:46;99901.63;;;0.19;100.00
35331;BME280;21441;52.190;20.910;2023-11-21T11:10:18;99906.41;;;0.14;100.00
35331;BME280;21441;52.190;20.910;2023-11-21T11:12:47;99913.53;;;0.12;100.00
35331;BME280;21441;52.190;20.910;2023-11-21T11:15:15;99905.19;;;0.07;100.00
35331;BME280;21441;52.190;20.910;2023-11-21T11:17:42;99912.25;;;0.18;100.00
35331;BME280;21441;52.190;20.910;2023-11-21T11:20:12;99911.97;;;0.10;100.00
35331;BME280;21441;52.190;20.910;2023-11-21T11:22:46;99905.78;;;0.11;100.00
35331;BME280;21441;52.190;20.910;2023-11-21T11:25:27;99920.53;;;0.25;100.00
35331;BME280;21441;52.190;20.910;2023-11-21T11:28:04;99910.41;;;0.31;100.00
35331;BME280;21441;52.190;20.910;2023-11-21T11:30:43;99914.59;;;0.10;100.00
35331;BME280;21441;52.190;20.910;2023-11-21T11:33:23;99926.09;;;0.20;100.00
35331;BME280;21441;52.190;20.910;2023-11-21T11:36:03;99924.41;;;0.19;100.00
35331;BME280;21441;52.190;20.910;2023-11-21T11:38:32;99917.91;;;0.25;100.00
35331;BME280;21441;52.190;20.910;2023-11-21T11:41:03;99912.25;;;0.18;100.00
35331;BME280;21441;52.190;20.910;2023-11-21T11:43:32;99914.69;;;0.08;100.00
35331;BME280;21441;52.190;20.910;2023-11-21T11:46:05;99925.63;;;0.02;100.00
35331;BME280;21441;52.190;20.910;2023-11-21T11:48:35;99924.50;;;-0.07;100.00
35331;BME280;21441;52.190;20.910;2023-11-21T11:51:05;99916.91;;;-0.23;100.00
35331;BME280;21441;52.190;20.910;2023-11-21T11:53:39;99931.66;;;-0.33;100.00
35331;BME280;21441;52.190;20.910;2023-11-21T11:56:22;99924.28;;;-0.28;100.00
35331;BME280;21441;52.190;20.910;2023-11-21T11:58:52;99922.50;;;-0.27;100.00
35331;BME280;21441;52.190;20.910;2023-11-21T12:01:20;99918.66;;;-0.34;100.00
35331;BME280;21441;52.190;20.910;2023-11-21T12:04:25;99930.16;;;-0.24;100.00
35331;BME280;21441;52.190;20.910;2023-11-21T12:07:00;99935.59;;;-0.27;100.00
35331;BME280;21441;52.190;20.910;2023-11-21T12:09:30;99923.47;;;-0.28;100.00
35331;BME280;21441;52.190;20.910;2023-11-21T12:12:00;99924.25;;;-0.52;100.00
35331;BME280;21441;52.190;20.910;2023-11-21T12:14:28;99925.16;;;-0.53;100.00
35331;BME280;21441;52.190;20.910;2023-11-21T12:16:55;99955.38;;;-0.73;100.00
35331;BME280;21441;52.190;20.910;2023-11-21T12:19:23;99942.06;;;-0.57;100.00
35331;BME280;21441;52.190;20.910;2023-11-21T12:21:49;99954.22;;;-0.69;100.00
35331;BME280;21441;52.190;20.910;2023-11-21T12:24:18;99944.78;;;-0.46;100.00
35331;BME280;21441;52.190;20.910;2023-11-21T12:26:45;99946.00;;;-0.38;100.00
35331;BME280;21441;52.190;20.910;2023-11-21T12:29:14;99943.63;;;-0.42;100.00
35331;BME280;21441;52.190;20.910;2023-11-21T12:31:42;99939.72;;;-0.49;100.00
35331;BME280;21441;52.190;20.910;2023-11-21T12:34:10;99958.91;;;-0.35;100.00
35331;BME280;21441;52.190;20.910;2023-11-21T12:36:39;99957.13;;;-0.35;100.00
35331;BME280;21441;52.190;20.910;2023-11-21T12:39:06;99933.75;;;-0.51;100.00
35331;BME280;21441;52.190;20.910;2023-11-21T12:41:37;99947.41;;;-0.46;100.00
35331;BME280;21441;52.190;20.910;2023-11-21T12:44:09;99954.53;;;-0.48;100.00
35331;BME280;21441;52.190;20.910;2023-11-21T12:46:42;99953.91;;;-0.51;100.00
35331;BME280;21441;52.190;20.910;2023-11-21T12:49:11;99966.16;;;-0.52;100.00
35331;BME280;21441;52.190;20.910;2023-11-21T12:51:43;99973.41;;;-0.55;100.00
35331;BME280;21441;52.190;20.910;2023-11-21T12:54:12;99958.00;;;-0.73;100.00